sensor_id;sensor_type;location;lat;lon;timestamp;P1;durP1;ratioP1;P2;durP2;ratioP2
13741;SDS011;8461;52.356;10.704;2022-08-19T00:00:19;11.77;;;9.03;;
13741;SDS011;8461;52.356;10.704;2022-08-19T00:02:45;12.03;;;9.00;;
13741;SDS011;8461;52.356;10.704;2022-08-19T00:05:11;10.20;;;9.10;;
13741;SDS011;8461;52.356;10.704;2022-08-19T00:07:38;11.33;;;9.60;;
13741;SDS011;8461;52.356;10.704;2022-08-19T00:10:05;11.17;;;9.37;;
13741;SDS011;8461;52.356;10.704;2022-08-19T00:12:32;11.17;;;9.37;;
13741;SDS011;8461;52.356;10.704;2022-08-19T00:14:58;13.03;;;9.33;;
13741;SDS011;8461;52.356;10.704;2022-08-19T00:17:24;12.33;;;9.07;;
13741;SDS011;8461;52.356;10.704;2022-08-19T00:19:49;12.40;;;9.50;;
13741;SDS011;8461;52.356;10.704;2022-08-19T00:22:15;13.77;;;10.33;;
13741;SDS011;8461;52.356;10.704;2022-08-19T00:24:43;10.03;;;8.90;;
13741;SDS011;8461;52.356;10.704;2022-08-19T00:27:10;11.23;;;9.23;;
13741;SDS011;8461;52.356;10.704;2022-08-19T00:29:36;12.80;;;10.30;;
13741;SDS011;8461;52.356;10.704;2022-08-19T00:32:02;10.53;;;8.97;;
13741;SDS011;8461;52.356;10.704;2022-08-19T00:34:27;11.13;;;8.90;;
13741;SDS011;8461;52.356;10.704;2022-08-19T00:36:54;11.37;;;9.70;;
13741;SDS011;8461;52.356;10.704;2022-08-19T00:39:20;10.70;;;9.00;;
13741;SDS011;8461;52.356;10.704;2022-08-19T00:41:46;12.10;;;10.00;;
13741;SDS011;8461;52.356;10.704;2022-08-19T00:44:14;10.10;;;9.10;;
13741;SDS011;8461;52.356;10.704;2022-08-19T00:46:45;13.37;;;9.17;;
13741;SDS011;8461;52.356;10.704;2022-08-19T00:51:45;9.67;;;8.73;;
13741;SDS011;8461;52.356;10.704;2022-08-19T00:54:13;12.17;;;9.40;;
13741;SDS011;8461;52.356;10.704;2022-08-19T00:56:40;12.70;;;8.90;;
13741;SDS011;8461;52.356;10.704;2022-08-19T00:59:06;13.57;;;8.90;;
13741;SDS011;8461;52.356;10.704;2022-08-19T01:01:36;11.50;;;8.23;;
13741;SDS011;8461;52.356;10.704;2022-08-19T01:04:03;9.47;;;8.47;;
13741;SDS011;8461;52.356;10.704;2022-08-19T01:06:29;13.23;;;8.87;;
13741;SDS011;8461;52.356;10.704;2022-08-19T01:08:57;10.43;;;8.27;;
13741;SDS011;8461;52.356;10.704;2022-08-19T01:11:24;10.97;;;8.67;;
13741;SDS011;8461;52.356;10.704;2022-08-19T01:13:50;10.60;;;7.87;;
13741;SDS011;8461;52.356;10.704;2022-08-19T01:16:18;11.77;;;8.13;;
13741;SDS011;8461;52.356;10.704;2022-08-19T01:18:46;9.03;;;8.03;;
13741;SDS011;8461;52.356;10.704;2022-08-19T01:21:32;11.37;;;8.07;;
13741;SDS011;8461;52.356;10.704;2022-08-19T01:24:02;11.50;;;8.63;;
13741;SDS011;8461;52.356;10.704;2022-08-19T01:26:28;11.83;;;8.80;;
13741;SDS011;8461;52.356;10.704;2022-08-19T01:28:55;9.90;;;8.30;;
13741;SDS011;8461;52.356;10.704;2022-08-19T01:31:28;13.23;;;9.07;;
13741;SDS011;8461;52.356;10.704;2022-08-19T01:33:57;9.77;;;8.10;;
13741;SDS011;8461;52.356;10.704;2022-08-19T01:36:25;11.20;;;8.83;;
13741;SDS011;8461;52.356;10.704;2022-08-19T01:39:06;10.20;;;8.83;;
13741;SDS011;8461;52.356;10.704;2022-08-19T01:41:34;12.60;;;8.20;;
13741;SDS011;8461;52.356;10.704;2022-08-19T01:44:00;12.80;;;8.80;;
13741;SDS011;8461;52.356;10.704;2022-08-19T01:46:28;11.57;;;8.50;;
13741;SDS011;8461;52.356;10.704;2022-08-19T01:48:55;12.00;;;9.60;;
13741;SDS011;8461;52.356;10.704;2022-08-19T01:51:21;12.10;;;8.93;;
13741;SDS011;8461;52.356;10.704;2022-08-19T01:53:47;9.43;;;8.53;;
13741;SDS011;8461;52.356;10.704;2022-08-19T01:56:14;10.23;;;8.47;;
13741;SDS011;8461;52.356;10.704;2022-08-19T01:58:41;10.77;;;7.90;;
13741;SDS011;8461;52.356;10.704;2022-08-19T02:01:18;9.13;;;8.23;;
13741;SDS011;8461;52.356;10.704;2022-08-19T02:03:45;11.73;;;8.63;;
13741;SDS011;8461;52.356;10.704;2022-08-19T02:06:10;10.90;;;8.43;;
13741;SDS011;8461;52.356;10.704;2022-08-19T02:08:38;9.13;;;8.20;;
13741;SDS011;8461;52.356;10.704;2022-08-19T02:11:04;10.47;;;8.80;;
13741;SDS011;8461;52.356;10.704;2022-08-19T02:13:30;12.70;;;8.87;;
13741;SDS011;8461;52.356;10.704;2022-08-19T02:15:56;12.63;;;8.50;;
13741;SDS011;8461;52.356;10.704;2022-08-19T02:18:22;9.70;;;7.90;;
13741;SDS011;8461;52.356;10.704;2022-08-19T02:20:48;8.17;;;7.37;;
13741;SDS011;8461;52.356;10.704;2022-08-19T02:23:14;11.27;;;8.03;;
13741;SDS011;8461;52.356;10.704;2022-08-19T02:25:42;12.40;;;7.90;;
13741;SDS011;8461;52.356;10.704;2022-08-19T02:28:10;10.37;;;7.83;;
13741;SDS011;8461;52.356;10.704;2022-08-19T02:30:36;9.70;;;7.57;;
13741;SDS011;8461;52.356;10.704;2022-08-19T02:33:03;11.37;;;8.50;;
13741;SDS011;8461;52.356;10.704;2022-08-19T02:35:29;9.23;;;7.20;;
13741;SDS011;8461;52.356;10.704;2022-08-19T02:37:56;11.23;;;7.57;;
13741;SDS011;8461;52.356;10.704;2022-08-19T02:40:40;9.37;;;7.77;;
13741;SDS011;8461;52.356;10.704;2022-08-19T02:43:06;11.53;;;8.20;;
13741;SDS011;8461;52.356;10.704;2022-08-19T02:45:37;8.57;;;7.63;;
13741;SDS011;8461;52.356;10.704;2022-08-19T02:48:04;11.43;;;7.50;;
13741;SDS011;8461;52.356;10.704;2022-08-19T02:50:29;9.43;;;7.50;;
13741;SDS011;8461;52.356;10.704;2022-08-19T02:52:56;8.60;;;7.67;;
13741;SDS011;8461;52.356;10.704;2022-08-19T02:55:21;9.50;;;7.23;;
13741;SDS011;8461;52.356;10.704;2022-08-19T02:57:47;9.77;;;7.47;;
13741;SDS011;8461;52.356;10.704;2022-08-19T03:00:14;10.07;;;6.87;;
13741;SDS011;8461;52.356;10.704;2022-08-19T03:02:40;8.70;;;7.47;;
13741;SDS011;8461;52.356;10.704;2022-08-19T03:05:06;9.57;;;7.83;;
13741;SDS011;8461;52.356;10.704;2022-08-19T03:07:34;11.60;;;7.40;;
13741;SDS011;8461;52.356;10.704;2022-08-19T03:10:00;11.57;;;7.77;;
13741;SDS011;8461;52.356;10.704;2022-08-19T03:12:26;10.50;;;7.63;;
13741;SDS011;8461;52.356;10.704;2022-08-19T03:14:51;8.37;;;7.20;;
13741;SDS011;8461;52.356;10.704;2022-08-19T03:17:17;11.33;;;7.30;;
13741;SDS011;8461;52.356;10.704;2022-08-19T03:19:43;9.37;;;7.80;;
13741;SDS011;8461;52.356;10.704;2022-08-19T03:22:09;10.13;;;8.10;;
13741;SDS011;8461;52.356;10.704;2022-08-19T03:24:34;9.27;;;8.07;;
13741;SDS011;8461;52.356;10.704;2022-08-19T03:27:00;12.97;;;8.13;;
13741;SDS011;8461;52.356;10.704;2022-08-19T03:29:26;10.70;;;8.20;;
13741;SDS011;8461;52.356;10.704;2022-08-19T03:31:53;10.37;;;7.07;;
13741;SDS011;8461;52.356;10.704;2022-08-19T03:34:21;15.97;;;8.07;;
13741;SDS011;8461;52.356;10.704;2022-08-19T03:36:51;10.80;;;8.53;;
13741;SDS011;8461;52.356;10.704;2022-08-19T03:39:17;12.10;;;7.67;;
13741;SDS011;8461;52.356;10.704;2022-08-19T03:41:44;10.80;;;8.07;;
13741;SDS011;8461;52.356;10.704;2022-08-19T03:44:15;12.93;;;8.10;;
13741;SDS011;8461;52.356;10.704;2022-08-19T03:46:42;12.43;;;7.50;;
13741;SDS011;8461;52.356;10.704;2022-08-19T03:49:08;8.70;;;7.43;;
13741;SDS011;8461;52.356;10.704;2022-08-19T03:51:35;11.30;;;8.17;;
13741;SDS011;8461;52.356;10.704;2022-08-19T03:54:05;11.60;;;7.80;;
13741;SDS011;8461;52.356;10.704;2022-08-19T03:56:33;12.53;;;7.70;;
13741;SDS011;8461;52.356;10.704;2022-08-19T03:58:59;11.50;;;7.60;;
13741;SDS011;8461;52.356;10.704;2022-08-19T04:01:26;11.77;;;7.80;;
13741;SDS011;8461;52.356;10.704;2022-08-19T04:03:53;9.90;;;7.37;;
13741;SDS011;8461;52.356;10.704;2022-08-19T04:06:24;14.77;;;7.90;;
13741;SDS011;8461;52.356;10.704;2022-08-19T04:08:55;10.53;;;7.27;;
13741;SDS011;8461;52.356;10.704;2022-08-19T04:11:27;12.47;;;6.80;;
13741;SDS011;8461;52.356;10.704;2022-08-19T04:13:55;11.00;;;7.13;;
13741;SDS011;8461;52.356;10.704;2022-08-19T04:16:21;9.67;;;7.97;;
13741;SDS011;8461;52.356;10.704;2022-08-19T04:18:50;10.00;;;6.90;;
13741;SDS011;8461;52.356;10.704;2022-08-19T04:21:20;9.67;;;7.37;;
13741;SDS011;8461;52.356;10.704;2022-08-19T04:23:47;11.43;;;7.30;;
13741;SDS011;8461;52.356;10.704;2022-08-19T04:26:14;11.77;;;7.70;;
13741;SDS011;8461;52.356;10.704;2022-08-19T04:28:42;11.87;;;7.93;;
13741;SDS011;8461;52.356;10.704;2022-08-19T04:31:12;10.30;;;7.03;;
13741;SDS011;8461;52.356;10.704;2022-08-19T04:33:39;10.37;;;7.60;;
13741;SDS011;8461;52.356;10.704;2022-08-19T04:36:05;10.83;;;7.33;;
13741;SDS011;8461;52.356;10.704;2022-08-19T04:38:31;10.97;;;7.97;;
13741;SDS011;8461;52.356;10.704;2022-08-19T04:40:56;11.50;;;7.27;;
13741;SDS011;8461;52.356;10.704;2022-08-19T04:43:40;12.00;;;7.50;;
13741;SDS011;8461;52.356;10.704;2022-08-19T04:46:09;8.50;;;7.60;;
13741;SDS011;8461;52.356;10.704;2022-08-19T04:48:37;10.60;;;7.10;;
13741;SDS011;8461;52.356;10.704;2022-08-19T04:51:05;8.97;;;6.80;;
13741;SDS011;8461;52.356;10.704;2022-08-19T04:53:34;8.63;;;6.93;;
13741;SDS011;8461;52.356;10.704;2022-08-19T04:56:06;10.47;;;7.50;;
13741;SDS011;8461;52.356;10.704;2022-08-19T04:58:34;9.93;;;7.13;;
13741;SDS011;8461;52.356;10.704;2022-08-19T05:01:02;10.20;;;7.93;;
13741;SDS011;8461;52.356;10.704;2022-08-19T05:03:28;8.10;;;7.30;;
13741;SDS011;8461;52.356;10.704;2022-08-19T05:05:58;10.77;;;7.33;;
13741;SDS011;8461;52.356;10.704;2022-08-19T05:08:32;9.73;;;6.77;;
13741;SDS011;8461;52.356;10.704;2022-08-19T05:11:00;10.00;;;7.63;;
13741;SDS011;8461;52.356;10.704;2022-08-19T05:13:26;11.60;;;7.87;;
13741;SDS011;8461;52.356;10.704;2022-08-19T05:15:55;13.03;;;8.00;;
13741;SDS011;8461;52.356;10.704;2022-08-19T05:18:22;11.63;;;7.83;;
13741;SDS011;8461;52.356;10.704;2022-08-19T05:21:10;13.03;;;7.83;;
13741;SDS011;8461;52.356;10.704;2022-08-19T05:23:57;10.80;;;7.80;;
13741;SDS011;8461;52.356;10.704;2022-08-19T05:26:23;9.23;;;7.80;;
13741;SDS011;8461;52.356;10.704;2022-08-19T05:28:51;9.23;;;8.23;;
13741;SDS011;8461;52.356;10.704;2022-08-19T05:31:17;10.53;;;8.53;;
13741;SDS011;8461;52.356;10.704;2022-08-19T05:33:43;10.13;;;8.00;;
13741;SDS011;8461;52.356;10.704;2022-08-19T05:36:08;10.70;;;8.10;;
13741;SDS011;8461;52.356;10.704;2022-08-19T05:38:34;12.20;;;8.67;;
13741;SDS011;8461;52.356;10.704;2022-08-19T05:41:00;9.10;;;8.10;;
13741;SDS011;8461;52.356;10.704;2022-08-19T05:43:31;9.87;;;8.37;;
13741;SDS011;8461;52.356;10.704;2022-08-19T05:45:57;10.93;;;8.70;;
13741;SDS011;8461;52.356;10.704;2022-08-19T05:48:23;11.00;;;8.27;;
13741;SDS011;8461;52.356;10.704;2022-08-19T05:50:48;11.70;;;8.23;;
13741;SDS011;8461;52.356;10.704;2022-08-19T05:53:15;9.60;;;8.43;;
13741;SDS011;8461;52.356;10.704;2022-08-19T05:55:41;9.13;;;7.87;;
13741;SDS011;8461;52.356;10.704;2022-08-19T05:58:07;11.70;;;8.57;;
13741;SDS011;8461;52.356;10.704;2022-08-19T06:00:33;11.70;;;8.67;;
13741;SDS011;8461;52.356;10.704;2022-08-19T06:03:00;11.67;;;7.73;;
13741;SDS011;8461;52.356;10.704;2022-08-19T06:05:28;7.80;;;7.00;;
13741;SDS011;8461;52.356;10.704;2022-08-19T06:07:55;9.93;;;7.77;;
13741;SDS011;8461;52.356;10.704;2022-08-19T06:10:20;10.27;;;7.87;;
13741;SDS011;8461;52.356;10.704;2022-08-19T06:12:47;10.00;;;8.27;;
13741;SDS011;8461;52.356;10.704;2022-08-19T06:15:13;10.60;;;7.97;;
13741;SDS011;8461;52.356;10.704;2022-08-19T06:17:39;11.57;;;7.83;;
13741;SDS011;8461;52.356;10.704;2022-08-19T06:20:08;10.40;;;8.43;;
13741;SDS011;8461;52.356;10.704;2022-08-19T06:22:40;10.10;;;7.80;;
13741;SDS011;8461;52.356;10.704;2022-08-19T06:25:08;8.73;;;7.40;;
13741;SDS011;8461;52.356;10.704;2022-08-19T06:27:37;11.80;;;8.53;;
13741;SDS011;8461;52.356;10.704;2022-08-19T06:30:03;10.90;;;7.97;;
13741;SDS011;8461;52.356;10.704;2022-08-19T06:32:29;11.90;;;7.97;;
13741;SDS011;8461;52.356;10.704;2022-08-19T06:34:55;10.83;;;8.27;;
13741;SDS011;8461;52.356;10.704;2022-08-19T06:37:21;11.93;;;8.70;;
13741;SDS011;8461;52.356;10.704;2022-08-19T06:39:47;10.00;;;8.03;;
13741;SDS011;8461;52.356;10.704;2022-08-19T06:42:13;10.63;;;7.67;;
13741;SDS011;8461;52.356;10.704;2022-08-19T06:44:42;9.93;;;7.43;;
13741;SDS011;8461;52.356;10.704;2022-08-19T06:47:09;10.10;;;8.37;;
13741;SDS011;8461;52.356;10.704;2022-08-19T06:49:37;8.77;;;7.23;;
13741;SDS011;8461;52.356;10.704;2022-08-19T06:52:03;11.27;;;7.60;;
13741;SDS011;8461;52.356;10.704;2022-08-19T06:54:29;9.87;;;7.43;;
13741;SDS011;8461;52.356;10.704;2022-08-19T06:56:56;9.77;;;7.93;;
13741;SDS011;8461;52.356;10.704;2022-08-19T06:59:23;13.20;;;7.77;;
13741;SDS011;8461;52.356;10.704;2022-08-19T07:01:53;11.90;;;7.50;;
13741;SDS011;8461;52.356;10.704;2022-08-19T07:04:21;9.33;;;7.40;;
13741;SDS011;8461;52.356;10.704;2022-08-19T07:06:49;7.87;;;6.97;;
13741;SDS011;8461;52.356;10.704;2022-08-19T07:09:15;10.23;;;7.97;;
13741;SDS011;8461;52.356;10.704;2022-08-19T07:11:46;9.70;;;6.70;;
13741;SDS011;8461;52.356;10.704;2022-08-19T07:14:18;10.97;;;7.93;;
13741;SDS011;8461;52.356;10.704;2022-08-19T07:16:47;9.93;;;7.50;;
13741;SDS011;8461;52.356;10.704;2022-08-19T07:19:15;9.00;;;7.43;;
13741;SDS011;8461;52.356;10.704;2022-08-19T07:21:41;9.00;;;7.27;;
13741;SDS011;8461;52.356;10.704;2022-08-19T07:24:07;9.77;;;7.30;;
13741;SDS011;8461;52.356;10.704;2022-08-19T07:26:37;8.93;;;7.27;;
13741;SDS011;8461;52.356;10.704;2022-08-19T07:29:05;9.80;;;7.07;;
13741;SDS011;8461;52.356;10.704;2022-08-19T07:31:31;8.40;;;7.57;;
13741;SDS011;8461;52.356;10.704;2022-08-19T07:34:02;9.87;;;6.83;;
13741;SDS011;8461;52.356;10.704;2022-08-19T07:36:32;10.53;;;7.40;;
13741;SDS011;8461;52.356;10.704;2022-08-19T07:38:59;11.37;;;8.00;;
13741;SDS011;8461;52.356;10.704;2022-08-19T07:41:27;9.87;;;7.20;;
13741;SDS011;8461;52.356;10.704;2022-08-19T07:43:56;8.37;;;6.77;;
13741;SDS011;8461;52.356;10.704;2022-08-19T07:46:30;10.53;;;7.60;;
13741;SDS011;8461;52.356;10.704;2022-08-19T07:48:58;10.47;;;6.97;;
13741;SDS011;8461;52.356;10.704;2022-08-19T07:51:25;15.43;;;7.60;;
13741;SDS011;8461;52.356;10.704;2022-08-19T07:53:51;8.80;;;7.27;;
13741;SDS011;8461;52.356;10.704;2022-08-19T07:56:18;11.23;;;7.17;;
13741;SDS011;8461;52.356;10.704;2022-08-19T07:58:44;9.37;;;6.40;;
13741;SDS011;8461;52.356;10.704;2022-08-19T08:01:14;11.87;;;6.97;;
13741;SDS011;8461;52.356;10.704;2022-08-19T08:03:42;10.13;;;6.77;;
13741;SDS011;8461;52.356;10.704;2022-08-19T08:06:26;10.13;;;6.63;;
13741;SDS011;8461;52.356;10.704;2022-08-19T08:09:11;7.97;;;6.70;;
13741;SDS011;8461;52.356;10.704;2022-08-19T08:11:59;7.43;;;6.23;;
13741;SDS011;8461;52.356;10.704;2022-08-19T08:14:31;15.70;;;6.97;;
13741;SDS011;8461;52.356;10.704;2022-08-19T08:16:59;7.93;;;6.30;;
13741;SDS011;8461;52.356;10.704;2022-08-19T08:19:26;7.43;;;6.17;;
13741;SDS011;8461;52.356;10.704;2022-08-19T08:21:56;8.17;;;6.43;;
13741;SDS011;8461;52.356;10.704;2022-08-19T08:24:23;8.27;;;6.17;;
13741;SDS011;8461;52.356;10.704;2022-08-19T08:26:49;7.33;;;6.10;;
13741;SDS011;8461;52.356;10.704;2022-08-19T08:29:15;8.10;;;5.77;;
13741;SDS011;8461;52.356;10.704;2022-08-19T08:31:41;8.13;;;6.03;;
13741;SDS011;8461;52.356;10.704;2022-08-19T08:34:08;9.07;;;6.37;;
13741;SDS011;8461;52.356;10.704;2022-08-19T08:36:42;6.80;;;5.90;;
13741;SDS011;8461;52.356;10.704;2022-08-19T08:39:17;9.53;;;5.50;;
13741;SDS011;8461;52.356;10.704;2022-08-19T08:44:32;8.73;;;5.67;;
13741;SDS011;8461;52.356;10.704;2022-08-19T08:47:05;6.90;;;5.10;;
13741;SDS011;8461;52.356;10.704;2022-08-19T08:49:45;6.40;;;5.07;;
13741;SDS011;8461;52.356;10.704;2022-08-19T08:52:18;6.70;;;5.10;;
13741;SDS011;8461;52.356;10.704;2022-08-19T08:55:09;7.13;;;5.20;;
13741;SDS011;8461;52.356;10.704;2022-08-19T09:00:07;7.57;;;4.77;;
13741;SDS011;8461;52.356;10.704;2022-08-19T09:02:37;5.70;;;4.60;;
13741;SDS011;8461;52.356;10.704;2022-08-19T09:05:03;6.33;;;5.10;;
13741;SDS011;8461;52.356;10.704;2022-08-19T09:15:55;6.97;;;5.30;;
13741;SDS011;8461;52.356;10.704;2022-08-19T09:18:25;9.40;;;5.57;;
13741;SDS011;8461;52.356;10.704;2022-08-19T09:21:03;8.23;;;6.10;;
13741;SDS011;8461;52.356;10.704;2022-08-19T09:23:28;10.83;;;5.50;;
13741;SDS011;8461;52.356;10.704;2022-08-19T09:25:54;6.63;;;5.60;;
13741;SDS011;8461;52.356;10.704;2022-08-19T09:28:19;8.10;;;6.07;;
13741;SDS011;8461;52.356;10.704;2022-08-19T09:30:45;7.10;;;5.70;;
13741;SDS011;8461;52.356;10.704;2022-08-19T09:33:10;7.90;;;6.10;;
13741;SDS011;8461;52.356;10.704;2022-08-19T09:35:36;6.83;;;5.57;;
13741;SDS011;8461;52.356;10.704;2022-08-19T09:38:02;9.87;;;5.40;;
13741;SDS011;8461;52.356;10.704;2022-08-19T09:40:28;6.47;;;5.27;;
13741;SDS011;8461;52.356;10.704;2022-08-19T09:42:54;5.93;;;5.20;;
13741;SDS011;8461;52.356;10.704;2022-08-19T09:45:22;7.03;;;5.30;;
13741;SDS011;8461;52.356;10.704;2022-08-19T09:47:48;6.80;;;4.70;;
13741;SDS011;8461;52.356;10.704;2022-08-19T09:50:15;8.30;;;5.50;;
13741;SDS011;8461;52.356;10.704;2022-08-19T09:52:41;6.77;;;5.27;;
13741;SDS011;8461;52.356;10.704;2022-08-19T09:55:08;7.63;;;5.53;;
13741;SDS011;8461;52.356;10.704;2022-08-19T09:57:35;9.60;;;5.80;;
13741;SDS011;8461;52.356;10.704;2022-08-19T10:00:01;10.10;;;5.70;;
13741;SDS011;8461;52.356;10.704;2022-08-19T10:02:31;6.83;;;5.70;;
13741;SDS011;8461;52.356;10.704;2022-08-19T10:04:57;7.17;;;5.77;;
13741;SDS011;8461;52.356;10.704;2022-08-19T10:07:46;7.37;;;5.93;;
13741;SDS011;8461;52.356;10.704;2022-08-19T10:10:11;7.10;;;6.40;;
13741;SDS011;8461;52.356;10.704;2022-08-19T10:12:37;8.63;;;6.17;;
13741;SDS011;8461;52.356;10.704;2022-08-19T10:15:03;10.47;;;7.20;;
13741;SDS011;8461;52.356;10.704;2022-08-19T10:17:31;7.70;;;5.80;;
13741;SDS011;8461;52.356;10.704;2022-08-19T10:19:58;6.97;;;5.97;;
13741;SDS011;8461;52.356;10.704;2022-08-19T10:22:24;7.30;;;5.63;;
13741;SDS011;8461;52.356;10.704;2022-08-19T10:24:50;6.00;;;5.40;;
13741;SDS011;8461;52.356;10.704;2022-08-19T10:27:17;7.03;;;5.50;;
13741;SDS011;8461;52.356;10.704;2022-08-19T10:29:42;6.93;;;5.17;;
13741;SDS011;8461;52.356;10.704;2022-08-19T10:32:08;7.63;;;5.67;;
13741;SDS011;8461;52.356;10.704;2022-08-19T10:34:35;6.97;;;6.27;;
13741;SDS011;8461;52.356;10.704;2022-08-19T10:37:03;6.57;;;5.97;;
13741;SDS011;8461;52.356;10.704;2022-08-19T10:39:34;6.10;;;5.50;;
13741;SDS011;8461;52.356;10.704;2022-08-19T10:42:04;7.00;;;6.10;;
13741;SDS011;8461;52.356;10.704;2022-08-19T10:44:31;7.83;;;6.20;;
13741;SDS011;8461;52.356;10.704;2022-08-19T10:46:57;8.50;;;6.20;;
13741;SDS011;8461;52.356;10.704;2022-08-19T10:49:24;7.03;;;5.67;;
13741;SDS011;8461;52.356;10.704;2022-08-19T10:51:49;7.97;;;5.87;;
13741;SDS011;8461;52.356;10.704;2022-08-19T10:54:33;7.30;;;5.40;;
13741;SDS011;8461;52.356;10.704;2022-08-19T10:57:17;7.60;;;6.10;;
13741;SDS011;8461;52.356;10.704;2022-08-19T10:59:43;8.40;;;5.47;;
13741;SDS011;8461;52.356;10.704;2022-08-19T11:02:09;9.23;;;6.27;;
13741;SDS011;8461;52.356;10.704;2022-08-19T11:04:37;8.73;;;6.53;;
13741;SDS011;8461;52.356;10.704;2022-08-19T11:07:04;6.37;;;5.10;;
13741;SDS011;8461;52.356;10.704;2022-08-19T11:09:30;8.63;;;6.50;;
13741;SDS011;8461;52.356;10.704;2022-08-19T11:11:56;6.37;;;5.73;;
13741;SDS011;8461;52.356;10.704;2022-08-19T11:14:22;8.87;;;6.63;;
13741;SDS011;8461;52.356;10.704;2022-08-19T11:16:50;7.00;;;6.30;;
13741;SDS011;8461;52.356;10.704;2022-08-19T11:19:17;7.93;;;5.90;;
13741;SDS011;8461;52.356;10.704;2022-08-19T11:21:45;7.80;;;5.63;;
13741;SDS011;8461;52.356;10.704;2022-08-19T11:24:16;6.37;;;5.47;;
13741;SDS011;8461;52.356;10.704;2022-08-19T11:26:45;8.40;;;5.87;;
13741;SDS011;8461;52.356;10.704;2022-08-19T11:29:14;6.97;;;6.27;;
13741;SDS011;8461;52.356;10.704;2022-08-19T11:31:41;15.60;;;7.43;;
13741;SDS011;8461;52.356;10.704;2022-08-19T11:34:10;8.97;;;5.70;;
13741;SDS011;8461;52.356;10.704;2022-08-19T11:36:40;9.63;;;7.10;;
13741;SDS011;8461;52.356;10.704;2022-08-19T11:39:08;8.27;;;6.57;;
13741;SDS011;8461;52.356;10.704;2022-08-19T11:41:35;7.90;;;6.37;;
13741;SDS011;8461;52.356;10.704;2022-08-19T11:44:01;6.00;;;5.13;;
13741;SDS011;8461;52.356;10.704;2022-08-19T11:46:29;7.17;;;5.77;;
13741;SDS011;8461;52.356;10.704;2022-08-19T11:48:56;6.27;;;5.53;;
13741;SDS011;8461;52.356;10.704;2022-08-19T11:51:24;6.87;;;5.93;;
13741;SDS011;8461;52.356;10.704;2022-08-19T11:53:51;8.53;;;6.67;;
13741;SDS011;8461;52.356;10.704;2022-08-19T11:56:18;9.00;;;6.43;;
13741;SDS011;8461;52.356;10.704;2022-08-19T11:58:44;7.57;;;6.60;;
13741;SDS011;8461;52.356;10.704;2022-08-19T12:01:12;7.43;;;6.20;;
13741;SDS011;8461;52.356;10.704;2022-08-19T12:03:40;6.63;;;5.80;;
13741;SDS011;8461;52.356;10.704;2022-08-19T12:06:10;8.07;;;5.80;;
13741;SDS011;8461;52.356;10.704;2022-08-19T12:08:40;8.20;;;5.13;;
13741;SDS011;8461;52.356;10.704;2022-08-19T12:11:07;8.07;;;5.90;;
13741;SDS011;8461;52.356;10.704;2022-08-19T12:13:34;6.53;;;4.93;;
13741;SDS011;8461;52.356;10.704;2022-08-19T12:16:00;5.80;;;5.20;;
13741;SDS011;8461;52.356;10.704;2022-08-19T12:18:34;6.77;;;5.40;;
13741;SDS011;8461;52.356;10.704;2022-08-19T12:21:00;5.53;;;4.73;;
13741;SDS011;8461;52.356;10.704;2022-08-19T12:23:26;5.73;;;5.13;;
13741;SDS011;8461;52.356;10.704;2022-08-19T12:25:51;8.00;;;5.57;;
13741;SDS011;8461;52.356;10.704;2022-08-19T12:28:18;7.60;;;4.93;;
13741;SDS011;8461;52.356;10.704;2022-08-19T12:30:45;6.63;;;5.40;;
13741;SDS011;8461;52.356;10.704;2022-08-19T12:33:11;7.43;;;5.30;;
13741;SDS011;8461;52.356;10.704;2022-08-19T12:35:41;8.77;;;5.13;;
13741;SDS011;8461;52.356;10.704;2022-08-19T12:38:11;8.80;;;5.23;;
13741;SDS011;8461;52.356;10.704;2022-08-19T12:40:37;9.47;;;4.93;;
13741;SDS011;8461;52.356;10.704;2022-08-19T12:43:05;7.07;;;4.70;;
13741;SDS011;8461;52.356;10.704;2022-08-19T12:45:34;6.40;;;4.27;;
13741;SDS011;8461;52.356;10.704;2022-08-19T12:48:00;4.60;;;3.83;;
13741;SDS011;8461;52.356;10.704;2022-08-19T12:50:25;4.13;;;3.53;;
13741;SDS011;8461;52.356;10.704;2022-08-19T12:52:51;3.90;;;3.33;;
13741;SDS011;8461;52.356;10.704;2022-08-19T12:55:17;5.67;;;4.40;;
13741;SDS011;8461;52.356;10.704;2022-08-19T12:57:44;5.30;;;3.87;;
13741;SDS011;8461;52.356;10.704;2022-08-19T13:00:11;4.73;;;4.13;;
13741;SDS011;8461;52.356;10.704;2022-08-19T13:02:40;4.00;;;3.60;;
13741;SDS011;8461;52.356;10.704;2022-08-19T13:05:09;5.17;;;4.03;;
13741;SDS011;8461;52.356;10.704;2022-08-19T13:07:37;4.13;;;3.73;;
13741;SDS011;8461;52.356;10.704;2022-08-19T13:10:04;5.07;;;4.23;;
13741;SDS011;8461;52.356;10.704;2022-08-19T13:12:31;6.43;;;3.93;;
13741;SDS011;8461;52.356;10.704;2022-08-19T13:14:57;5.60;;;4.00;;
13741;SDS011;8461;52.356;10.704;2022-08-19T13:17:23;4.40;;;3.70;;
13741;SDS011;8461;52.356;10.704;2022-08-19T13:19:48;5.47;;;4.37;;
13741;SDS011;8461;52.356;10.704;2022-08-19T13:22:15;5.67;;;4.07;;
13741;SDS011;8461;52.356;10.704;2022-08-19T13:24:41;4.87;;;4.30;;
13741;SDS011;8461;52.356;10.704;2022-08-19T13:27:06;4.63;;;4.13;;
13741;SDS011;8461;52.356;10.704;2022-08-19T13:29:32;5.90;;;5.03;;
13741;SDS011;8461;52.356;10.704;2022-08-19T13:32:16;4.30;;;3.87;;
13741;SDS011;8461;52.356;10.704;2022-08-19T13:35:01;4.63;;;3.80;;
13741;SDS011;8461;52.356;10.704;2022-08-19T13:37:27;4.50;;;4.10;;
13741;SDS011;8461;52.356;10.704;2022-08-19T13:40:09;5.30;;;4.80;;
13741;SDS011;8461;52.356;10.704;2022-08-19T13:42:42;4.53;;;4.07;;
13741;SDS011;8461;52.356;10.704;2022-08-19T13:45:11;5.47;;;4.13;;
13741;SDS011;8461;52.356;10.704;2022-08-19T13:47:38;4.60;;;4.20;;
13741;SDS011;8461;52.356;10.704;2022-08-19T13:50:10;5.03;;;4.53;;
13741;SDS011;8461;52.356;10.704;2022-08-19T13:52:38;5.00;;;4.10;;
13741;SDS011;8461;52.356;10.704;2022-08-19T13:55:04;4.40;;;3.97;;
13741;SDS011;8461;52.356;10.704;2022-08-19T13:57:30;5.50;;;4.37;;
13741;SDS011;8461;52.356;10.704;2022-08-19T13:59:57;5.10;;;3.90;;
13741;SDS011;8461;52.356;10.704;2022-08-19T14:02:23;5.77;;;4.23;;
13741;SDS011;8461;52.356;10.704;2022-08-19T14:04:49;4.70;;;4.20;;
13741;SDS011;8461;52.356;10.704;2022-08-19T14:07:15;4.70;;;4.17;;
13741;SDS011;8461;52.356;10.704;2022-08-19T14:09:40;4.50;;;4.10;;
13741;SDS011;8461;52.356;10.704;2022-08-19T14:12:06;5.10;;;4.60;;
13741;SDS011;8461;52.356;10.704;2022-08-19T14:14:31;5.53;;;4.20;;
13741;SDS011;8461;52.356;10.704;2022-08-19T14:17:00;4.90;;;4.47;;
13741;SDS011;8461;52.356;10.704;2022-08-19T14:19:26;5.57;;;4.40;;
13741;SDS011;8461;52.356;10.704;2022-08-19T14:21:51;4.67;;;4.17;;
13741;SDS011;8461;52.356;10.704;2022-08-19T14:24:17;5.43;;;4.33;;
13741;SDS011;8461;52.356;10.704;2022-08-19T14:26:42;4.60;;;4.00;;
13741;SDS011;8461;52.356;10.704;2022-08-19T14:29:08;5.63;;;4.87;;
13741;SDS011;8461;52.356;10.704;2022-08-19T14:31:33;5.50;;;4.67;;
13741;SDS011;8461;52.356;10.704;2022-08-19T14:33:59;6.77;;;4.80;;
13741;SDS011;8461;52.356;10.704;2022-08-19T14:36:25;5.00;;;4.50;;
13741;SDS011;8461;52.356;10.704;2022-08-19T14:38:50;5.30;;;4.60;;
13741;SDS011;8461;52.356;10.704;2022-08-19T14:41:19;5.00;;;4.50;;
13741;SDS011;8461;52.356;10.704;2022-08-19T14:43:47;6.07;;;4.40;;
13741;SDS011;8461;52.356;10.704;2022-08-19T14:46:15;5.50;;;4.60;;
13741;SDS011;8461;52.356;10.704;2022-08-19T14:48:42;6.40;;;5.07;;
13741;SDS011;8461;52.356;10.704;2022-08-19T14:51:08;5.20;;;4.70;;
13741;SDS011;8461;52.356;10.704;2022-08-19T14:53:34;4.63;;;4.00;;
13741;SDS011;8461;52.356;10.704;2022-08-19T14:56:00;5.43;;;4.93;;
13741;SDS011;8461;52.356;10.704;2022-08-19T14:58:31;6.57;;;4.73;;
13741;SDS011;8461;52.356;10.704;2022-08-19T15:00:58;4.30;;;3.47;;
13741;SDS011;8461;52.356;10.704;2022-08-19T15:03:24;4.33;;;3.93;;